Time;durP1;ratioP1;P1;durP2;ratioP2;P2;SDS_P1;SDS_P2;PMS_P1;PMS_P2;Temp;Humidity;BMP_temperature;BMP_pressure;BME280_temperature;BME280_humidity;BME280_pressure;Samples;Min_cycle;Max_cycle;Signal;HPM_P1;HPM_P2
2021/03/03 00:02:08;;;;;;;22.42;9.15;;;;;;;12.17;64.65;101134.38;5037728;28;20415;-61
2021/03/03 00:04:33;;;;;;;26.00;8.75;;;;;;;12.17;64.60;101131.63;5037656;28;20044;-62
2021/03/03 00:06:59;;;;;;;23.02;7.82;;;;;;;12.07;64.74;101115.22;5037887;28;20118;-62
2021/03/03 00:09:24;;;;;;;19.88;8.10;;;;;;;12.08;64.78;101112.19;5037367;28;20025;-62
2021/03/03 00:11:49;;;;;;;28.90;8.80;;;;;;;12.19;64.69;101134.09;5036784;28;20040;-62
2021/03/03 00:14:15;;;;;;;25.42;8.25;;;;;;;12.18;64.73;101137.91;5037179;28;20682;-62
2021/03/03 00:16:40;;;;;;;24.10;9.20;;;;;;;12.18;64.84;101132.44;5040121;28;20441;-61
2021/03/03 00:19:06;;;;;;;22.13;8.57;;;;;;;12.18;64.78;101136.00;5036881;28;20112;-62
2021/03/03 00:21:31;;;;;;;22.50;8.73;;;;;;;12.14;64.73;101126.69;5037514;28;20526;-62
2021/03/03 00:23:57;;;;;;;19.55;7.60;;;;;;;12.19;64.80;101139.56;5037740;28;20060;-62
2021/03/03 00:26:22;;;;;;;20.52;8.15;;;;;;;12.17;64.59;101133.53;5037220;28;20523;-61
2021/03/03 00:28:48;;;;;;;23.38;8.98;;;;;;;12.17;64.65;101152.66;5036289;28;20076;-62
2021/03/03 00:31:14;;;;;;;20.63;8.15;;;;;;;12.04;64.78;101126.66;5037336;28;20033;-61
2021/03/03 00:33:40;;;;;;;20.88;8.07;;;;;;;12.15;64.88;101152.94;5037019;28;20037;-62
2021/03/03 00:36:05;;;;;;;20.08;8.50;;;;;;;11.98;64.73;101128.59;5037591;28;20104;-62
2021/03/03 00:38:31;;;;;;;22.90;8.20;;;;;;;12.14;64.74;101150.50;5037035;28;20021;-62
2021/03/03 00:40:56;;;;;;;21.23;7.80;;;;;;;12.13;64.94;101157.84;5037286;28;20029;-61
2021/03/03 00:43:22;;;;;;;23.13;7.78;;;;;;;12.12;64.83;101157.06;5037172;28;20097;-61
2021/03/03 00:45:47;;;;;;;22.35;8.02;;;;;;;12.14;64.87;101153.22;5045573;28;20469;-61
2021/03/03 00:48:13;;;;;;;21.17;7.93;;;;;;;12.15;64.87;101163.06;5052422;28;20020;-62
2021/03/03 00:50:38;;;;;;;27.08;8.90;;;;;;;12.16;64.76;101161.97;5043680;28;20098;-62
2021/03/03 00:53:11;;;;;;;19.23;7.78;;;;;;;12.16;64.95;101175.63;5037475;28;20052;-62
2021/03/03 00:55:37;;;;;;;19.20;7.80;;;;;;;12.15;64.86;101168.53;5037178;28;20029;-62
2021/03/03 00:58:03;;;;;;;20.92;8.02;;;;;;;12.16;64.78;101170.16;5036687;28;20522;-62
2021/03/03 01:00:28;;;;;;;21.30;8.23;;;;;;;12.13;64.91;101171.53;5036441;28;20449;-62
2021/03/03 01:02:54;;;;;;;23.35;7.78;;;;;;;12.13;64.85;101174.25;5048185;28;20042;-61
2021/03/03 01:05:20;;;;;;;22.27;7.90;;;;;;;12.13;64.98;101174.25;5039397;28;20378;-62
2021/03/03 01:07:45;;;;;;;22.13;8.02;;;;;;;12.11;65.05;101177.28;5037201;28;20029;-62
2021/03/03 01:10:11;;;;;;;21.50;8.32;;;;;;;12.02;64.69;101164.41;5036855;28;20439;-61
2021/03/03 01:12:37;;;;;;;24.27;8.65;;;;;;;12.12;64.85;101178.06;5040522;28;20566;-62
2021/03/03 01:15:03;;;;;;;18.13;7.43;;;;;;;12.10;64.66;101178.34;5038471;28;20030;-61
2021/03/03 01:17:28;;;;;;;18.38;7.70;;;;;;;12.00;64.51;101166.59;5041203;28;20437;-61
2021/03/03 01:19:54;;;;;;;28.67;7.57;;;;;;;12.10;64.69;101183.81;5040653;28;20428;-61
2021/03/03 01:22:19;;;;;;;24.10;7.25;;;;;;;12.09;64.71;101175.91;5040793;28;20116;-61
2021/03/03 01:24:44;;;;;;;19.80;8.02;;;;;;;12.10;64.62;101189.28;5040801;28;20028;-61
2021/03/03 01:27:10;;;;;;;21.25;7.80;;;;;;;12.09;64.56;101173.97;5040318;28;20457;-62
2021/03/03 01:29:35;;;;;;;19.05;7.38;;;;;;;12.00;64.24;101156.47;5039543;28;20041;-62
2021/03/03 01:32:00;;;;;;;28.17;7.15;;;;;;;12.02;64.46;101169.88;5040507;28;20030;-61
2021/03/03 01:34:26;;;;;;;19.05;7.22;;;;;;;12.05;64.35;101182.97;5040849;28;20029;-61
2021/03/03 01:36:51;;;;;;;19.30;6.85;;;;;;;12.03;64.35;101174.22;5040752;28;20029;-62
2021/03/03 01:39:17;;;;;;;20.95;6.82;;;;;;;12.03;64.44;101176.97;5040094;28;20061;-61
2021/03/03 01:41:42;;;;;;;21.73;7.15;;;;;;;12.02;64.45;101176.16;5040011;28;20017;-62
2021/03/03 01:44:07;;;;;;;18.40;6.57;;;;;;;12.01;64.39;101173.69;5040289;28;20044;-61
2021/03/03 01:46:33;;;;;;;16.05;6.80;;;;;;;11.91;64.27;101163.50;5040288;28;20053;-61
2021/03/03 01:48:58;;;;;;;17.50;6.10;;;;;;;11.98;64.35;101172.31;5039392;28;20044;-62
2021/03/03 01:51:24;;;;;;;13.95;6.22;;;;;;;11.98;64.16;101179.69;5040005;28;20033;-62
2021/03/03 01:53:49;;;;;;;23.30;6.38;;;;;;;11.98;64.10;101179.69;5040580;28;20057;-61
2021/03/03 01:56:15;;;;;;;20.10;6.50;;;;;;;11.92;64.07;101170.63;5039745;28;20116;-62
2021/03/03 01:58:40;;;;;;;19.25;7.00;;;;;;;11.94;64.04;101177.44;5040140;28;20028;-61
2021/03/03 02:01:06;;;;;;;17.50;6.53;;;;;;;11.84;63.78;101162.94;5039805;28;20066;-61
2021/03/03 02:03:31;;;;;;;24.40;6.55;;;;;;;11.91;63.79;101183.47;5040456;28;20387;-62
2021/03/03 02:06:04;;;;;;;14.98;5.80;;;;;;;11.91;63.92;101185.38;5039696;28;20038;-62
2021/03/03 02:08:39;;;;;;;17.77;6.35;;;;;;;11.90;63.67;101175.56;5038168;28;20041;-61
2021/03/03 02:11:04;;;;;;;15.13;5.95;;;;;;;11.88;63.89;101170.34;5042428;28;20055;-61
2021/03/03 02:13:33;;;;;;;19.70;6.90;;;;;;;11.88;63.80;101172.25;5039878;28;20043;-61
2021/03/03 02:16:02;;;;;;;16.77;5.90;;;;;;;11.74;63.74;101155.53;5039687;28;20097;-62
2021/03/03 02:18:30;;;;;;;13.20;5.35;;;;;;;11.85;63.60;101161.84;5039394;28;20030;-61
2021/03/03 02:21:08;;;;;;;14.50;6.13;;;;;;;11.84;63.61;101155.56;5039238;28;20488;-62
2021/03/03 02:23:59;;;;;;;13.75;5.10;;;;;;;11.82;63.45;101164.03;5039678;28;20025;-61
2021/03/03 02:26:33;;;;;;;20.10;5.90;;;;;;;11.79;63.47;101159.13;5031156;28;20029;-62
2021/03/03 02:29:26;;;;;;;11.52;4.95;;;;;;;11.82;63.12;101144.91;5038803;28;20081;-61
2021/03/03 02:31:52;;;;;;;13.35;5.18;;;;;;;11.78;63.14;101152.00;5037425;28;20104;-61
2021/03/03 02:34:20;;;;;;;16.20;5.38;;;;;;;11.78;63.25;101156.63;5039372;28;20099;-62
2021/03/03 02:36:50;;;;;;;15.65;5.80;;;;;;;11.70;63.07;101136.13;5039541;28;20547;-62
2021/03/03 02:39:17;;;;;;;17.52;5.20;;;;;;;11.75;63.34;101149.00;5033226;28;20453;-62
2021/03/03 02:41:45;;;;;;;13.50;4.78;;;;;;;11.75;63.16;101151.72;5039177;28;20026;-61
2021/03/03 02:44:12;;;;;;;14.77;5.22;;;;;;;11.66;63.18;101140.47;5039112;28;20063;-61
2021/03/03 02:46:41;;;;;;;14.90;4.85;;;;;;;11.75;63.04;101157.19;5038644;28;20029;-62
2021/03/03 02:49:07;;;;;;;13.63;4.90;;;;;;;11.70;63.01;101144.31;5039097;28;20033;-62
2021/03/03 02:51:33;;;;;;;14.75;4.85;;;;;;;11.74;62.96;101148.16;5038924;28;20063;-61
2021/03/03 02:53:58;;;;;;;14.45;5.32;;;;;;;11.73;63.07;101149.25;5039169;28;20030;-61
2021/03/03 02:56:24;;;;;;;9.20;5.38;;;;;;;11.67;62.97;101144.84;5039210;28;20417;-61
2021/03/03 02:58:51;;;;;;;13.18;5.78;;;;;;;11.73;62.90;101151.16;5041264;28;20033;-61
2021/03/03 03:01:18;;;;;;;12.63;4.97;;;;;;;11.63;62.89;101141.03;5038707;28;20025;-61
2021/03/03 03:04:03;;;;;;;17.35;5.70;;;;;;;11.70;62.84;101149.78;5038584;28;20480;-61
2021/03/03 03:06:35;;;;;;;13.80;5.18;;;;;;;11.70;62.80;101147.06;5052874;28;20029;-61
2021/03/03 03:09:09;;;;;;;12.43;4.80;;;;;;;11.68;62.71;101148.41;5046916;28;20025;-61
2021/03/03 03:11:37;;;;;;;15.90;5.40;;;;;;;11.68;62.85;101148.41;5041935;28;20044;-61
2021/03/03 03:14:10;;;;;;;10.82;5.65;;;;;;;11.67;62.76;101146.78;5037461;28;20388;-61
2021/03/03 03:16:38;;;;;;;14.05;4.40;;;;;;;11.65;62.81;101141.59;5038370;28;20036;-61
2021/03/03 03:19:11;;;;;;;13.05;4.60;;;;;;;11.64;62.87;101150.88;5038745;28;20087;-61
2021/03/03 03:21:44;;;;;;;17.55;4.93;;;;;;;11.61;63.01;101144.00;5038904;28;20079;-61
2021/03/03 03:24:10;;;;;;;11.80;5.15;;;;;;;11.61;62.98;101143.19;5038903;28;20036;-61
2021/03/03 03:26:36;;;;;;;13.25;5.10;;;;;;;11.59;62.98;101146.19;5038701;28;20029;-62
2021/03/03 03:29:03;;;;;;;14.82;5.00;;;;;;;11.58;62.91;101146.44;5037215;28;20484;-61
2021/03/03 03:31:29;;;;;;;13.52;5.03;;;;;;;11.55;62.65;101147.00;5038530;28;20056;-61
2021/03/03 03:33:55;;;;;;;13.20;5.30;;;;;;;11.54;62.74;101148.09;5037644;28;20029;-61
2021/03/03 03:36:21;;;;;;;13.25;4.53;;;;;;;11.50;62.99;101145.88;5038858;28;20037;-61
2021/03/03 03:38:46;;;;;;;15.98;5.43;;;;;;;11.51;63.04;101146.72;5038316;28;20037;-61
2021/03/03 03:41:13;;;;;;;12.77;4.82;;;;;;;11.47;63.10;101140.13;5038305;28;20022;-61
2021/03/03 03:43:39;;;;;;;13.18;5.03;;;;;;;11.50;63.21;101153.25;5038124;28;20037;-62
2021/03/03 03:46:07;;;;;;;14.32;5.13;;;;;;;11.50;63.09;101151.34;5038387;28;20035;-61
2021/03/03 03:48:36;;;;;;;10.48;4.95;;;;;;;11.50;63.16;101156.00;5037353;28;20041;-62
2021/03/03 03:51:06;;;;;;;12.27;5.13;;;;;;;11.49;63.36;101148.88;5037849;28;20036;-61
2021/03/03 03:53:33;;;;;;;10.88;5.03;;;;;;;11.47;63.14;101149.16;5037754;28;20377;-61
2021/03/03 03:55:59;;;;;;;15.38;4.82;;;;;;;11.45;63.16;101158.69;5038151;28;20082;-62
2021/03/03 03:58:24;;;;;;;17.77;4.82;;;;;;;11.43;63.23;101158.16;5037936;28;20037;-61
2021/03/03 04:00:50;;;;;;;16.42;5.25;;;;;;;11.30;63.44;101140.34;5038678;28;20025;-61
2021/03/03 04:03:15;;;;;;;11.05;5.32;;;;;;;11.42;63.45;101160.03;5045805;28;20037;-61
2021/03/03 04:05:41;;;;;;;9.60;4.88;;;;;;;11.31;63.66;101148.25;5047530;28;20029;-62
2021/03/03 04:08:06;;;;;;;15.90;5.05;;;;;;;11.39;63.40;101152.41;5041896;28;20059;-61
2021/03/03 04:10:32;;;;;;;8.88;4.50;;;;;;;11.44;63.49;101159.78;5037546;28;20067;-61
2021/03/03 04:12:57;;;;;;;12.43;5.20;;;;;;;11.44;63.63;101166.06;5037368;28;20400;-61
2021/03/03 04:15:24;;;;;;;13.82;5.32;;;;;;;11.44;63.57;101168.78;5037654;28;20037;-61
2021/03/03 04:17:50;;;;;;;13.30;4.45;;;;;;;11.44;63.55;101166.06;5037370;28;20035;-62
2021/03/03 04:20:16;;;;;;;14.32;5.43;;;;;;;11.39;63.55;101168.78;5037372;28;20026;-61
2021/03/03 04:22:43;;;;;;;11.10;4.63;;;;;;;11.42;63.66;101170.97;5037144;28;20059;-61
2021/03/03 04:25:11;;;;;;;12.93;5.07;;;;;;;11.22;63.53;101141.63;5037621;28;20025;-61
2021/03/03 04:27:38;;;;;;;12.80;5.03;;;;;;;11.42;63.62;101172.88;5037270;28;20064;-62
2021/03/03 04:30:09;;;;;;;8.85;5.35;;;;;;;11.42;63.71;101176.41;5036441;28;20040;-62
2021/03/03 04:32:35;;;;;;;22.10;5.38;;;;;;;11.39;63.81;101170.66;5035465;28;20033;-61
2021/03/03 04:35:00;;;;;;;14.20;5.35;;;;;;;11.25;63.73;101149.31;5037198;28;20037;-61
2021/03/03 04:37:26;;;;;;;17.55;5.07;;;;;;;11.38;63.58;101169.03;5037104;28;20064;-61
2021/03/03 04:39:52;;;;;;;13.95;5.75;;;;;;;11.38;63.93;101175.31;5037349;28;20093;-61
2021/03/03 04:42:17;;;;;;;11.98;4.90;;;;;;;11.37;63.97;101181.88;5036995;28;20384;-61
2021/03/03 04:44:43;;;;;;;13.98;5.53;;;;;;;11.36;63.61;101180.22;5035780;28;20025;-61
2021/03/03 04:47:08;;;;;;;15.30;5.13;;;;;;;11.21;63.77;101156.38;5037278;28;20091;-61
2021/03/03 04:49:33;;;;;;;12.32;5.00;;;;;;;11.33;63.93;101187.03;5036028;28;20337;-61
2021/03/03 04:51:59;;;;;;;14.18;5.13;;;;;;;11.34;63.63;101190.56;5039980;28;20029;-61
2021/03/03 04:54:24;;;;;;;13.77;4.25;;;;;;;11.34;63.98;101190.56;5037265;28;20141;-62
2021/03/03 04:56:50;;;;;;;15.40;4.88;;;;;;;11.31;63.98;101178.28;5037014;28;20033;-61
2021/03/03 04:59:15;;;;;;;11.77;5.07;;;;;;;11.33;63.85;101184.31;5036524;28;20085;-62
2021/03/03 05:01:41;;;;;;;13.90;5.85;;;;;;;11.34;63.99;101196.03;5036556;28;20025;-61
2021/03/03 05:04:06;;;;;;;13.02;5.22;;;;;;;11.36;64.11;101195.78;5037093;28;20040;-61
2021/03/03 05:06:32;;;;;;;12.98;4.68;;;;;;;11.28;64.23;101181.53;5032911;28;20088;-61
2021/03/03 05:08:58;;;;;;;17.00;5.15;;;;;;;11.35;64.11;101197.69;5029179;28;20037;-61
2021/03/03 05:11:24;;;;;;;11.65;5.40;;;;;;;11.34;63.99;101196.03;5036629;28;20068;-61
2021/03/03 05:13:49;;;;;;;13.48;5.22;;;;;;;11.33;64.02;101197.97;5037301;28;20040;-61
2021/03/03 05:16:15;;;;;;;15.48;5.40;;;;;;;11.30;64.09;101190.28;5036611;28;20037;-61
2021/03/03 05:18:40;;;;;;;12.48;5.10;;;;;;;11.33;64.11;101205.31;5036568;28;20037;-61
2021/03/03 05:21:07;;;;;;;16.70;4.80;;;;;;;11.31;64.03;101202.84;5036634;28;20029;-61
2021/03/03 05:23:34;;;;;;;13.95;5.13;;;;;;;11.31;64.05;101196.59;5037184;28;20040;-62
2021/03/03 05:26:00;;;;;;;13.18;5.60;;;;;;;11.23;63.79;101186.16;5036822;28;20361;-62
2021/03/03 05:28:26;;;;;;;15.57;5.05;;;;;;;11.30;64.07;101192.19;5036263;28;20587;-61
2021/03/03 05:30:52;;;;;;;15.18;5.13;;;;;;;11.30;64.06;101194.94;5036367;28;20404;-62
2021/03/03 05:33:23;;;;;;;14.73;4.95;;;;;;;11.31;64.20;101202.03;5035213;28;20037;-62
2021/03/03 05:35:50;;;;;;;15.40;5.30;;;;;;;11.29;64.26;101204.22;5036649;28;20029;-61
2021/03/03 05:38:15;;;;;;;11.38;4.57;;;;;;;11.31;64.13;101210.22;5036748;28;20112;-61
2021/03/03 05:40:41;;;;;;;10.57;4.65;;;;;;;11.28;63.97;101206.09;5036885;28;20057;-61
2021/03/03 05:43:07;;;;;;;13.05;5.88;;;;;;;11.28;64.24;101213.47;5036446;28;20033;-61
2021/03/03 05:45:33;;;;;;;13.68;4.93;;;;;;;11.13;64.16;101192.34;5036089;28;20044;-61
2021/03/03 05:47:59;;;;;;;11.50;4.93;;;;;;;11.09;64.34;101185.78;5036220;28;20112;-61
2021/03/03 05:50:26;;;;;;;15.20;5.30;;;;;;;11.23;64.16;101213.47;5036849;28;20030;-61
2021/03/03 05:52:52;;;;;;;13.63;5.05;;;;;;;11.25;63.96;101214.00;5036281;28;20030;-61
2021/03/03 05:55:18;;;;;;;11.95;4.68;;;;;;;11.24;64.32;101220.56;5036423;28;20083;-61
2021/03/03 05:57:43;;;;;;;12.55;4.80;;;;;;;11.03;64.31;101185.75;5038316;28;20034;-62
2021/03/03 06:00:09;;;;;;;11.52;5.05;;;;;;;11.22;64.11;101223.53;5039563;28;20105;-61
2021/03/03 06:02:36;;;;;;;9.93;4.57;;;;;;;11.22;64.27;101217.28;5040416;28;20136;-61
2021/03/03 06:05:02;;;;;;;14.02;5.22;;;;;;;11.23;64.40;101216.19;5041700;28;20029;-61
2021/03/03 06:07:29;;;;;;;12.73;4.85;;;;;;;11.07;64.22;101196.13;5040059;28;20025;-61
2021/03/03 06:09:54;;;;;;;12.02;5.30;;;;;;;11.12;63.89;101205.19;5039988;28;20037;-61
2021/03/03 06:12:19;;;;;;;13.23;5.32;;;;;;;11.18;64.08;101212.31;5039685;28;20022;-61
2021/03/03 06:14:45;;;;;;;10.07;4.82;;;;;;;10.97;63.83;101181.34;5039324;28;20029;-61
2021/03/03 06:17:11;;;;;;;11.35;4.95;;;;;;;11.15;63.97;101210.13;5038196;28;20036;-61
2021/03/03 06:19:36;;;;;;;16.15;5.03;;;;;;;11.13;64.02;101216.91;5039619;28;20041;-61
2021/03/03 06:22:21;;;;;;;11.98;5.25;;;;;;;11.20;63.80;101228.44;5039211;28;20057;-61
2021/03/03 06:24:47;;;;;;;9.82;4.82;;;;;;;11.12;64.06;101231.66;5039375;28;20041;-61
2021/03/03 06:27:12;;;;;;;13.20;4.80;;;;;;;11.16;63.91;101239.06;5039146;28;20100;-61
2021/03/03 06:29:38;;;;;;;12.80;4.90;;;;;;;11.14;63.93;101238.50;5039301;28;20033;-61
2021/03/03 06:32:04;;;;;;;9.27;4.68;;;;;;;11.15;63.95;101244.78;5039171;28;20075;-61
2021/03/03 06:34:30;;;;;;;11.52;5.03;;;;;;;11.02;63.84;101225.06;5039775;28;20033;-61
2021/03/03 06:36:55;;;;;;;8.13;4.68;;;;;;;11.13;63.96;101250.50;5039544;28;20029;-61
2021/03/03 06:39:25;;;;;;;12.00;4.95;;;;;;;11.14;64.06;101254.06;5039266;28;20029;-61
2021/03/03 06:41:52;;;;;;;10.00;4.82;;;;;;;11.14;64.14;101248.59;5039190;28;20108;-61
2021/03/03 06:44:18;;;;;;;13.02;4.35;;;;;;;11.14;63.97;101245.88;5041911;28;20104;-61
2021/03/03 06:46:44;;;;;;;15.20;5.22;;;;;;;11.15;64.12;101252.97;5044127;28;20068;-61
2021/03/03 06:49:29;;;;;;;10.35;4.47;;;;;;;11.17;64.01;101256.28;5039652;28;20029;-61
2021/03/03 06:51:55;;;;;;;12.32;4.65;;;;;;;11.14;63.82;101260.34;5038975;28;20041;-62
2021/03/03 06:54:23;;;;;;;11.77;4.70;;;;;;;11.15;64.05;101259.28;5038955;28;20037;-61
2021/03/03 06:56:52;;;;;;;11.93;4.85;;;;;;;11.17;63.90;101259.00;5038121;28;20030;-61
2021/03/03 06:59:24;;;;;;;12.10;4.85;;;;;;;11.17;63.95;101267.19;5038927;28;20036;-61
2021/03/03 07:01:55;;;;;;;12.55;5.00;;;;;;;11.08;64.18;101250.47;5036507;28;20535;-61
2021/03/03 07:04:23;;;;;;;14.15;5.50;;;;;;;11.09;64.02;101248.56;5055227;28;20032;-61
2021/03/03 07:06:50;;;;;;;12.00;5.22;;;;;;;11.11;64.20;101257.31;5041171;28;20029;-61
2021/03/03 07:09:16;;;;;;;11.60;4.72;;;;;;;11.20;64.24;101269.38;5038977;28;20078;-61
2021/03/03 07:11:42;;;;;;;13.25;5.18;;;;;;;11.22;64.08;101275.41;5033750;28;20583;-61
2021/03/03 07:14:18;;;;;;;13.02;5.63;;;;;;;11.24;64.33;101278.69;5036061;28;20039;-61
2021/03/03 07:17:10;;;;;;;;;;;;;;;11.22;64.16;101277.31;5037733;28;20017;-61
2021/03/03 07:19:41;;;;;;;16.00;6.65;;;;;;;11.20;64.42;101279.50;5036153;28;20356;-61
2021/03/03 07:22:31;;;;;;;13.20;5.30;;;;;;;11.25;64.38;101291.28;5037404;28;20021;-61
2021/03/03 07:25:02;;;;;;;11.98;5.43;;;;;;;11.25;64.81;101288.53;5021990;28;20041;-61
2021/03/03 07:27:29;;;;;;;11.82;6.13;;;;;;;11.28;64.54;101289.94;5036018;28;20109;-61
2021/03/03 07:30:05;;;;;;;13.43;5.82;;;;;;;11.28;64.53;101285.28;5036552;28;20029;-61
2021/03/03 07:32:30;;;;;;;12.65;6.32;;;;;;;11.29;64.71;101297.84;5036583;28;20037;-61
2021/03/03 07:34:57;;;;;;;11.48;5.72;;;;;;;11.33;64.80;101295.41;5036965;28;20148;-61
2021/03/03 07:37:25;;;;;;;17.05;6.78;;;;;;;11.35;64.68;101293.25;5036998;28;20085;-61
2021/03/03 07:40:03;;;;;;;12.90;5.70;;;;;;;11.37;64.60;101288.34;5036863;28;20452;-61
2021/03/03 07:42:30;;;;;;;13.00;5.15;;;;;;;11.36;64.82;101297.63;5036644;28;20029;-61
2021/03/03 07:44:59;;;;;;;11.05;5.20;;;;;;;11.32;64.63;101285.59;5036787;28;20041;-61
2021/03/03 07:47:28;;;;;;;11.27;5.65;;;;;;;11.43;64.78;101297.41;5036801;28;20040;-61
2021/03/03 07:49:58;;;;;;;16.30;5.80;;;;;;;11.42;64.72;101299.31;5036384;28;20037;-61
2021/03/03 07:52:24;;;;;;;11.25;4.80;;;;;;;11.34;64.84;101273.31;5036973;28;20091;-61
2021/03/03 07:54:50;;;;;;;13.85;5.68;;;;;;;11.38;64.59;101280.97;5036631;28;20381;-61
2021/03/03 07:57:16;;;;;;;13.38;5.80;;;;;;;11.54;64.83;101292.84;5035889;28;20083;-61
2021/03/03 07:59:43;;;;;;;11.45;5.30;;;;;;;11.56;64.74;101293.41;5039364;28;20116;-61
2021/03/03 08:02:09;;;;;;;13.40;5.45;;;;;;;11.58;64.63;101302.13;5036312;28;20061;-61
2021/03/03 08:04:41;;;;;;;17.23;6.22;;;;;;;11.61;64.65;101293.44;5036492;28;20053;-61
2021/03/03 08:07:26;;;;;;;13.80;6.40;;;;;;;11.64;64.42;101299.19;5036125;28;20040;-61
2021/03/03 08:10:10;;;;;;;17.50;6.28;;;;;;;11.65;64.75;101289.09;5036901;28;20032;-61
2021/03/03 08:12:55;;;;;;;21.80;7.85;;;;;;;11.68;64.61;101291.28;5035292;28;20472;-61
2021/03/03 08:15:32;;;;;;;13.70;6.05;;;;;;;11.62;64.75;101282.22;5035863;28;20021;-61
2021/03/03 08:18:20;;;;;;;14.13;5.88;;;;;;;11.72;64.54;101288.84;5036173;28;20037;-61
2021/03/03 08:21:08;;;;;;;14.45;5.97;;;;;;;11.72;64.51;101295.16;5036222;28;20043;-61
2021/03/03 08:23:34;;;;;;;14.07;5.85;;;;;;;11.73;64.67;101294.06;5030044;28;20107;-61
2021/03/03 08:26:01;;;;;;;14.02;4.97;;;;;;;11.71;64.55;101288.03;5036349;28;20033;-61
2021/03/03 08:28:33;;;;;;;16.70;5.90;;;;;;;11.79;64.64;101298.47;5036173;28;20055;-62
2021/03/03 08:31:04;;;;;;;15.93;5.88;;;;;;;11.82;64.62;101308.84;5036009;28;20057;-61
2021/03/03 08:33:31;;;;;;;18.55;6.20;;;;;;;11.86;64.60;101309.13;5036543;28;20029;-61
2021/03/03 08:35:56;;;;;;;13.80;6.13;;;;;;;11.83;64.55;101298.75;5035981;28;20036;-61
2021/03/03 08:38:22;;;;;;;17.70;5.20;;;;;;;11.89;64.47;101305.06;5036313;28;20021;-61
2021/03/03 08:40:47;;;;;;;9.57;5.30;;;;;;;11.96;64.50;101308.41;5036273;28;20091;-62
2021/03/03 08:43:35;;;;;;;18.40;5.80;;;;;;;12.02;64.51;101312.81;5035985;28;20025;-61
2021/03/03 08:46:20;;;;;;;11.43;5.50;;;;;;;12.05;64.43;101309.56;5033675;28;20025;-61
2021/03/03 08:48:52;;;;;;;12.10;6.25;;;;;;;12.06;64.27;101305.75;5034077;28;20404;-61
2021/03/03 08:51:30;;;;;;;17.08;6.40;;;;;;;12.04;64.10;101304.34;5034314;28;20404;-61
2021/03/03 08:53:59;;;;;;;16.10;5.80;;;;;;;12.13;64.10;101308.22;5036179;28;20064;-62
2021/03/03 08:56:45;;;;;;;11.68;5.70;;;;;;;12.16;63.91;101295.91;5035931;28;20025;-62
2021/03/03 08:59:13;;;;;;;10.68;5.22;;;;;;;12.18;63.71;101300.06;5035967;28;20104;-62
2021/03/03 09:02:01;;;;;;;12.68;5.70;;;;;;;12.22;63.30;101295.69;5035653;28;20040;-62
2021/03/03 09:04:46;;;;;;;15.55;6.20;;;;;;;12.25;63.04;101297.06;5029146;28;20025;-62
2021/03/03 09:07:26;;;;;;;21.02;7.07;;;;;;;12.26;62.93;101293.22;5038531;28;20021;-62
2021/03/03 09:09:52;;;;;;;13.02;6.28;;;;;;;12.32;62.56;101291.34;5036080;28;20129;-61
2021/03/03 09:12:23;;;;;;;16.70;6.22;;;;;;;12.36;61.77;101284.22;5035890;28;20018;-62
2021/03/03 09:14:52;;;;;;;16.95;5.85;;;;;;;12.39;61.80;101283.69;5035674;28;20056;-62
2021/03/03 09:17:27;;;;;;;18.15;6.15;;;;;;;12.42;61.40;101288.66;5038921;28;20025;-62
2021/03/03 09:19:57;;;;;;;13.43;7.20;;;;;;;12.46;60.94;101287.00;5035652;28;20111;-62
2021/03/03 09:22:24;;;;;;;15.75;6.25;;;;;;;12.50;60.52;101288.13;5027543;28;20021;-62
2021/03/03 09:24:52;;;;;;;15.23;6.22;;;;;;;12.54;60.37;101285.66;5035442;28;20056;-62
2021/03/03 09:27:19;;;;;;;17.25;6.13;;;;;;;12.46;60.02;101276.06;5035566;28;20045;-62
2021/03/03 09:29:45;;;;;;;19.95;6.63;;;;;;;12.58;59.87;101287.59;5035719;28;20021;-62
2021/03/03 09:32:16;;;;;;;12.15;6.47;;;;;;;12.60;59.68;101282.66;5038242;28;20025;-62
2021/03/03 09:34:58;;;;;;;12.80;6.18;;;;;;;12.65;59.33;101289.25;5038479;28;20059;-62
2021/03/03 09:37:24;;;;;;;10.52;5.60;;;;;;;12.66;59.63;101294.44;5039969;28;20408;-61
2021/03/03 09:39:57;;;;;;;15.23;6.68;;;;;;;12.55;59.32;101277.19;5039731;28;20037;-62
2021/03/03 09:42:23;;;;;;;12.82;5.72;;;;;;;12.75;59.23;101287.34;5039584;28;20079;-62
2021/03/03 09:44:50;;;;;;;16.65;6.50;;;;;;;12.80;58.61;101296.66;5039920;28;20025;-62
2021/03/03 09:47:30;;;;;;;15.73;5.85;;;;;;;12.83;58.53;101288.72;5039411;28;20030;-62
2021/03/03 09:49:56;;;;;;;12.70;6.07;;;;;;;12.87;58.85;101283.53;5039654;28;20025;-62
2021/03/03 09:52:23;;;;;;;17.02;6.15;;;;;;;12.86;58.43;101279.97;5039528;28;20021;-61
2021/03/03 09:54:49;;;;;;;13.05;5.60;;;;;;;12.93;58.21;101285.19;5039699;28;20057;-62
2021/03/03 09:57:22;;;;;;;15.35;5.57;;;;;;;12.97;58.00;101279.97;5038038;28;20476;-62
2021/03/03 09:59:54;;;;;;;15.23;5.82;;;;;;;13.00;58.09;101282.97;5040577;28;20060;-62
2021/03/03 10:02:22;;;;;;;17.63;6.07;;;;;;;13.03;58.13;101287.09;5039114;28;20028;-62
2021/03/03 10:04:49;;;;;;;12.05;5.90;;;;;;;13.06;58.05;101292.84;5038655;28;20036;-62
2021/03/03 10:07:22;;;;;;;18.10;5.75;;;;;;;13.14;58.12;101279.72;5033686;28;20104;-62
2021/03/03 10:10:02;;;;;;;15.80;6.90;;;;;;;13.17;57.77;101273.66;5039207;28;20026;-62
2021/03/03 10:12:35;;;;;;;14.77;5.90;;;;;;;13.23;57.32;101280.78;5040198;28;20117;-62
2021/03/03 10:15:13;;;;;;;16.40;6.35;;;;;;;13.24;57.23;101279.69;5040122;28;20664;-62
2021/03/03 10:17:48;;;;;;;17.27;5.88;;;;;;;13.28;57.18;101280.81;5038170;28;20029;-62
2021/03/03 10:20:49;;;;;;;13.10;5.70;;;;;;;13.35;56.94;101284.06;5038731;28;20056;-62
2021/03/03 10:23:18;;;;;;;12.23;5.57;;;;;;;13.34;56.92;101282.44;5038808;28;20034;-62
2021/03/03 10:25:49;;;;;;;14.02;5.50;;;;;;;13.42;56.75;101280.25;5038998;28;20021;-62
2021/03/03 10:28:20;;;;;;;13.60;6.03;;;;;;;13.47;56.52;101272.84;5038541;28;20065;-62
2021/03/03 10:30:48;;;;;;;17.77;6.05;;;;;;;13.52;56.36;101274.78;5038170;28;20118;-61
2021/03/03 10:33:32;;;;;;;16.67;6.38;;;;;;;13.58;56.02;101273.66;5038763;28;20022;-62
2021/03/03 10:35:59;;;;;;;11.50;5.57;;;;;;;13.47;55.99;101261.09;5027847;28;20114;-62
2021/03/03 10:38:26;;;;;;;13.27;5.90;;;;;;;13.65;55.66;101263.22;5038786;28;20026;-62
2021/03/03 10:40:54;;;;;;;12.07;5.80;;;;;;;13.72;55.49;101267.59;5038680;28;20079;-62
2021/03/03 10:43:22;;;;;;;15.15;6.18;;;;;;;13.76;54.95;101271.41;5037033;28;20048;-61
2021/03/03 10:45:49;;;;;;;17.25;6.03;;;;;;;13.60;54.51;101244.06;5038281;28;20100;-62
2021/03/03 10:48:28;;;;;;;15.15;6.15;;;;;;;13.69;54.14;101249.78;5038314;28;20036;-61
2021/03/03 10:50:54;;;;;;;15.15;6.68;;;;;;;13.82;54.17;101268.38;5038704;28;20084;-62
2021/03/03 10:53:20;;;;;;;11.57;5.82;;;;;;;13.86;53.76;101263.16;5038285;28;20780;-61
2021/03/03 10:55:46;;;;;;;17.02;7.82;;;;;;;13.90;53.66;101257.94;5038203;28;20021;-62
2021/03/03 10:58:13;;;;;;;12.60;6.60;;;;;;;13.95;53.37;101256.00;5040888;28;20028;-62
2021/03/03 11:01:05;;;;;;;13.45;6.47;;;;;;;14.00;53.06;101249.69;5039171;28;20024;-62
2021/03/03 11:03:54;;;;;;;14.63;6.18;;;;;;;13.92;52.82;101244.78;5032895;28;20774;-62
2021/03/03 11:06:21;;;;;;;14.40;6.55;;;;;;;14.03;52.63;101259.28;5036911;28;20052;-62
2021/03/03 11:08:47;;;;;;;15.52;6.78;;;;;;;14.03;52.60;101251.03;5043802;28;20025;-62
2021/03/03 11:11:13;;;;;;;14.00;6.25;;;;;;;14.06;52.57;101255.94;5037997;28;20040;-62
2021/03/03 11:13:38;;;;;;;12.68;6.05;;;;;;;13.81;52.46;101205.59;5030105;28;20029;-62
2021/03/03 11:16:04;;;;;;;13.70;6.15;;;;;;;14.14;52.29;101247.13;5036231;28;20060;-62
2021/03/03 11:18:30;;;;;;;17.30;7.07;;;;;;;14.11;52.03;101236.75;5037282;28;20051;-62
2021/03/03 11:20:56;;;;;;;12.43;6.72;;;;;;;14.11;52.08;101223.84;5033452;28;20338;-62
2021/03/03 11:23:21;;;;;;;14.80;6.68;;;;;;;14.23;52.00;101242.69;5036277;28;20018;-62
2021/03/03 11:25:47;;;;;;;13.63;6.60;;;;;;;14.27;52.05;101235.56;5036555;28;20029;-62